Time;durP1;ratioP1;P1;durP2;ratioP2;P2;SDS_P1;SDS_P2;PMS_P1;PMS_P2;Temp;Humidity;BMP_temperature;BMP_pressure;BME280_temperature;BME280_humidity;BME280_pressure;Samples;Min_cycle;Max_cycle;Signal;HPM_P1;HPM_P2
2022/11/22 00:00:24;;;;;;;54.80;29.90;;;;;;;1.69;84.13;99516.98;100379;1294;82059;-58
2022/11/22 00:03:13;;;;;;;49.10;29.40;;;;;;;1.71;84.11;99516.44;100320;1285;87614;-59
2022/11/22 00:05:44;;;;;;;50.10;29.50;;;;;;;1.71;84.28;99520.42;100329;1294;82009;-61
2022/11/22 00:08:13;;;;;;;50.10;29.30;;;;;;;1.75;84.30;99516.70;100338;1294;98370;-58
2022/11/22 00:10:42;;;;;;;48.60;28.00;;;;;;;1.78;84.17;99517.48;100335;1293;92749;-59
2022/11/22 00:13:12;;;;;;;51.30;30.10;;;;;;;1.86;84.15;99518.31;100389;1285;83196;-61
2022/11/22 00:15:41;;;;;;;52.70;30.60;;;;;;;1.86;84.11;99514.89;100377;1295;89287;-59
2022/11/22 00:18:10;;;;;;;53.90;31.20;;;;;;;1.88;84.10;99514.71;100425;1291;79699;-56
2022/11/22 00:20:44;;;;;;;51.60;29.40;;;;;;;1.82;84.16;99519.55;100386;1292;99288;-58
2022/11/22 00:23:15;;;;;;;50.30;28.20;;;;;;;1.79;84.11;99523.89;100359;1293;94225;-57
2022/11/22 00:25:48;;;;;;;52.20;28.20;;;;;;;1.77;84.08;99527.11;100341;1294;83285;-56
2022/11/22 00:28:19;;;;;;;49.90;27.50;;;;;;;1.67;84.39;99524.73;100366;1294;86731;-60
2022/11/22 00:30:49;;;;;;;47.90;27.60;;;;;;;1.70;84.25;99522.05;100315;1297;80803;-57
2022/11/22 00:33:21;;;;;;;50.50;27.70;;;;;;;1.73;84.37;99522.23;100346;1293;99139;-61
2022/11/22 00:35:52;;;;;;;50.00;27.40;;;;;;;1.77;84.21;99522.31;100293;1294;93392;-60
2022/11/22 00:38:24;;;;;;;48.30;28.40;;;;;;;1.79;84.32;99523.25;100346;1297;80715;-57
2022/11/22 00:40:55;;;;;;;51.30;28.80;;;;;;;1.84;84.33;99518.98;100330;1294;89806;-59
2022/11/22 00:43:24;;;;;;;50.10;29.70;;;;;;;1.89;84.31;99523.65;100358;1294;79688;-54
2022/11/22 00:45:55;;;;;;;48.90;27.50;;;;;;;1.90;84.16;99519.40;100354;1294;99198;-59
2022/11/22 00:48:24;;;;;;;51.00;29.20;;;;;;;1.86;84.29;99520.73;100316;1292;95770;-61
2022/11/22 00:50:56;;;;;;;55.60;27.50;;;;;;;1.84;84.22;99521.26;100333;1297;82561;-60
2022/11/22 00:53:26;;;;;;;50.60;28.10;;;;;;;1.80;84.18;99517.44;100320;1301;88393;-54
2022/11/22 00:55:54;;;;;;;50.40;28.60;;;;;;;1.80;84.19;99520.44;100353;1294;79878;-56
2022/11/22 00:58:23;;;;;;;52.00;30.10;;;;;;;1.79;84.07;99522.67;100322;1297;98056;-59
2022/11/22 01:00:55;;;;;;;51.30;27.60;;;;;;;1.77;84.28;99525.02;100346;1297;94948;-52
2022/11/22 01:03:26;;;;;;;47.60;26.40;;;;;;;1.79;84.23;99525.39;100340;1297;83500;-57
2022/11/22 01:05:55;;;;;;;49.60;27.00;;;;;;;1.82;84.25;99528.10;100406;1295;89052;-57
2022/11/22 01:08:26;;;;;;;49.00;27.40;;;;;;;1.90;84.22;99533.81;100406;1299;79906;-60
2022/11/22 01:11:03;;;;;;;48.40;27.50;;;;;;;1.93;84.21;99529.41;100339;1294;99591;-61
2022/11/22 01:13:32;;;;;;;51.10;27.90;;;;;;;1.87;84.19;99526.54;100394;1300;94045;-62
2022/11/22 01:16:07;;;;;;;56.50;31.40;;;;;;;1.85;84.14;99531.14;100347;1293;82548;-61
2022/11/22 01:18:36;;;;;;;53.80;28.50;;;;;;;1.83;84.12;99528.70;100361;1295;88823;-62
2022/11/22 01:21:07;;;;;;;51.40;28.20;;;;;;;1.80;84.18;99530.55;100344;1294;81158;-61
2022/11/22 01:23:36;;;;;;;51.60;28.30;;;;;;;1.80;84.04;99533.27;100390;1288;97349;-58
2022/11/22 01:26:12;;;;;;;54.40;28.80;;;;;;;1.77;84.29;99533.75;100329;1294;93789;-59
2022/11/22 01:28:42;;;;;;;51.80;28.30;;;;;;;1.78;84.39;99529.88;100359;1292;81234;-62
2022/11/22 01:31:14;;;;;;;;;;;;;;;1.84;84.23;99527.11;100343;1294;89203;-61
2022/11/22 01:33:42;;;;;;;51.70;27.80;;;;;;;1.80;84.45;99522.79;100331;1294;79602;-62
2022/11/22 01:36:14;;;;;;;48.90;27.40;;;;;;;1.81;84.60;99518.81;100370;1301;99135;-64
2022/11/22 01:38:44;;;;;;;54.30;28.80;;;;;;;1.87;84.30;99514.77;100334;1299;94588;-58
2022/11/22 01:41:16;;;;;;;54.70;31.60;;;;;;;1.88;84.46;99514.89;100362;1294;83288;-58
2022/11/22 01:43:46;;;;;;;58.10;31.20;;;;;;;1.93;84.21;99520.95;100388;1295;89306;-57
2022/11/22 01:46:31;;;;;;;53.90;29.50;;;;;;;1.90;84.21;99524.28;100389;1297;78578;-56
2022/11/22 01:49:11;;;;;;;52.90;28.80;;;;;;;1.83;84.31;99523.73;100384;1286;98555;-62
2022/11/22 01:51:46;;;;;;;59.30;29.30;;;;;;;1.82;84.15;99524.70;100345;1298;95237;-61
2022/11/22 01:54:22;;;;;;;55.20;29.20;;;;;;;1.82;84.21;99530.73;100352;1294;83011;-61
2022/11/22 01:56:59;;;;;;;55.40;28.80;;;;;;;1.84;84.10;99529.45;100348;1294;89235;-61
2022/11/22 01:59:33;;;;;;;55.90;28.50;;;;;;;1.84;84.12;99534.04;100318;1294;81002;-54
2022/11/22 02:02:05;;;;;;;55.00;30.10;;;;;;;1.87;84.28;99537.69;100370;1298;98280;-59
2022/11/22 02:04:38;;;;;;;55.40;31.50;;;;;;;1.96;84.07;99543.91;100360;1294;95365;-52
2022/11/22 02:07:15;;;;;;;60.00;31.50;;;;;;;1.94;84.28;99546.70;100352;1297;82451;-57
2022/11/22 02:09:48;;;;;;;55.30;30.40;;;;;;;1.94;84.17;99555.25;100331;1294;88966;-57
2022/11/22 02:12:24;;;;;;;57.20;32.30;;;;;;;1.90;84.16;99559.44;100345;1294;77793;-57
2022/11/22 02:14:56;;;;;;;56.40;30.60;;;;;;;1.89;84.02;99558.30;100353;1300;99393;-62
2022/11/22 02:17:28;;;;;;;59.70;31.50;;;;;;;1.86;84.22;99554.43;100341;1294;94249;-59
2022/11/22 02:19:58;;;;;;;55.80;30.00;;;;;;;1.78;84.23;99554.04;100213;1293;83234;-58
2022/11/22 02:22:40;;;;;;;60.90;31.70;;;;;;;1.77;84.24;99560.01;100326;1299;88214;-58
2022/11/22 02:25:20;;;;;;;57.90;30.00;;;;;;;1.79;84.21;99561.87;100361;1297;81545;-62
2022/11/22 02:27:49;;;;;;;55.90;29.10;;;;;;;1.83;84.19;99566.84;100367;1284;97576;-62
2022/11/22 02:30:25;;;;;;;57.80;29.60;;;;;;;1.85;84.31;99560.61;100332;1294;94928;-50
2022/11/22 02:32:55;;;;;;;57.20;30.30;;;;;;;1.88;84.38;99565.09;100371;1294;82765;-56
2022/11/22 02:35:31;;;;;;;54.10;28.90;;;;;;;1.94;84.30;99562.91;100340;1297;87640;-56
2022/11/22 02:38:04;;;;;;;57.10;29.20;;;;;;;1.98;84.19;99568.56;100330;1293;79421;-55
2022/11/22 02:40:40;;;;;;;61.00;31.40;;;;;;;1.98;84.23;99569.97;100378;1277;99309;-57
2022/11/22 02:43:15;;;;;;;61.70;31.60;;;;;;;1.95;84.30;99574.16;100331;1294;95676;-60
2022/11/22 02:45:44;;;;;;;56.90;29.30;;;;;;;1.92;84.29;99577.64;100317;1294;80950;-61
2022/11/22 02:48:18;;;;;;;56.60;28.20;;;;;;;1.89;84.20;99577.62;100323;1293;88786;-58
2022/11/22 02:50:47;;;;;;;59.70;27.90;;;;;;;1.84;84.24;99571.35;100308;1294;82061;-58
2022/11/22 02:53:19;;;;;;;56.80;29.50;;;;;;;1.83;84.36;99573.05;100322;1294;97709;-58
2022/11/22 02:55:53;;;;;;;58.80;29.20;;;;;;;1.86;84.29;99568.86;100311;1288;94942;-58
2022/11/22 02:58:25;;;;;;;58.00;29.60;;;;;;;1.84;84.34;99565.86;100342;1293;80952;-61
2022/11/22 03:00:57;;;;;;;60.30;29.30;;;;;;;1.84;84.38;99567.13;100319;1297;88511;-61
2022/11/22 03:03:28;;;;;;;59.00;30.20;;;;;;;1.85;84.41;99566.83;100332;1293;76918;-58
2022/11/22 03:06:01;;;;;;;59.90;30.20;;;;;;;1.81;84.43;99566.17;100332;1294;99577;-60
2022/11/22 03:08:33;;;;;;;68.30;32.30;;;;;;;1.83;84.32;99566.17;100345;1294;94366;-57
2022/11/22 03:11:02;;;;;;;66.60;33.30;;;;;;;1.80;84.40;99569.42;100362;1292;82746;-61
2022/11/22 03:13:35;;;;;;;64.00;31.70;;;;;;;1.80;84.34;99564.29;100326;1300;87566;-58
2022/11/22 03:16:07;;;;;;;62.30;30.70;;;;;;;1.79;84.37;99564.23;100355;1294;80750;-57
2022/11/22 03:18:39;;;;;;;67.70;31.50;;;;;;;1.82;84.26;99565.02;100370;1299;99851;-60
2022/11/22 03:21:09;;;;;;;67.30;32.10;;;;;;;1.84;84.29;99563.52;100362;1294;95048;-60
2022/11/22 03:23:38;;;;;;;62.80;31.90;;;;;;;1.86;84.27;99560.21;100349;1292;81502;-58
2022/11/22 03:26:12;;;;;;;63.50;29.80;;;;;;;1.88;84.41;99558.92;100322;1294;90472;-57
2022/11/22 03:28:41;;;;;;;69.90;31.30;;;;;;;1.90;84.33;99555.45;100318;1284;79990;-61
2022/11/22 03:31:14;;;;;;;65.10;31.60;;;;;;;1.90;84.43;99553.95;100330;1294;99984;-61
2022/11/22 03:33:48;;;;;;;64.50;33.70;;;;;;;1.94;84.50;99556.17;100369;1294;95543;-59
2022/11/22 03:36:17;;;;;;;69.70;33.30;;;;;;;1.86;84.64;99559.45;100365;1294;82889;-60
2022/11/22 03:38:46;;;;;;;68.10;31.80;;;;;;;1.84;84.55;99559.45;100325;1294;89232;-57
2022/11/22 03:41:18;;;;;;;73.50;33.00;;;;;;;1.76;84.63;99561.70;100334;1294;82634;-59
2022/11/22 03:43:49;;;;;;;66.70;31.20;;;;;;;1.73;84.60;99560.85;100320;1294;99742;-58
2022/11/22 03:46:20;;;;;;;68.50;32.50;;;;;;;1.73;84.89;99562.31;100342;1292;95081;-57
2022/11/22 03:48:49;;;;;;;70.30;32.20;;;;;;;1.72;84.71;99559.88;100316;1298;83023;-61
2022/11/22 03:51:24;;;;;;;66.30;30.80;;;;;;;1.75;84.87;99561.27;100355;1294;88583;-59
2022/11/22 03:53:57;;;;;;;71.90;31.30;;;;;;;1.77;84.84;99562.29;100384;1298;81625;-59
2022/11/22 03:56:26;;;;;;;74.40;32.90;;;;;;;1.85;84.87;99560.94;100363;1297;98929;-58
2022/11/22 03:58:56;;;;;;;63.70;31.90;;;;;;;1.91;84.89;99560.71;100333;1298;94807;-60
2022/11/22 04:01:26;;;;;;;65.30;31.90;;;;;;;1.91;84.81;99556.09;100346;1301;81348;-59
2022/11/22 04:03:57;;;;;;;70.80;34.30;;;;;;;1.92;84.95;99555.84;100377;1298;87927;-53
2022/11/22 04:06:27;;;;;;;65.00;31.40;;;;;;;1.91;84.81;99560.02;100343;1292;79310;-50
2022/11/22 04:08:55;;;;;;;68.10;32.40;;;;;;;1.90;84.89;99564.90;100366;1294;97640;-61
2022/11/22 04:11:25;;;;;;;72.30;32.30;;;;;;;1.86;84.93;99562.81;100300;1297;94907;-59
2022/11/22 04:16:43;;;;;;;76.40;33.10;;;;;;;1.85;84.88;99561.20;100324;1294;89466;-58
2022/11/22 04:19:14;;;;;;;73.70;33.20;;;;;;;1.84;84.91;99559.34;100318;1293;79964;-58
2022/11/22 04:21:45;;;;;;;70.70;31.70;;;;;;;1.83;85.12;99558.34;100303;1294;100169;-59
2022/11/22 04:27:06;;;;;;;74.00;31.00;;;;;;;1.82;85.35;99548.64;100207;1300;84996;-58
2022/11/22 04:29:40;;;;;;;72.20;32.80;;;;;;;1.84;85.33;99546.65;100345;1294;88621;-61
2022/11/22 04:34:59;;;;;;;70.20;33.60;;;;;;;1.87;85.19;99538.05;100382;1298;98930;-49
2022/11/22 04:37:28;;;;;;;67.10;31.60;;;;;;;1.88;85.06;99535.27;100330;1292;94946;-56
2022/11/22 04:39:58;;;;;;;70.00;32.90;;;;;;;1.89;85.06;99536.40;100321;1293;82614;-60
2022/11/22 04:45:16;;;;;;;76.40;32.10;;;;;;;1.80;85.29;99536.38;100344;1293;79622;-60
2022/11/22 04:47:59;;;;;;;76.10;33.70;;;;;;;1.85;85.36;99534.01;100342;1297;98561;-59
2022/11/22 04:53:21;;;;;;;78.30;34.40;;;;;;;1.87;85.42;99535.42;100336;1300;82211;-47
2022/11/22 04:55:50;;;;;;;82.20;36.00;;;;;;;1.95;85.42;99537.55;100353;1292;86734;-58
2022/11/22 04:58:21;;;;;;;85.70;34.20;;;;;;;1.98;85.32;99542.77;100305;1294;79921;-59
2022/11/22 05:00:53;;;;;;;78.10;34.90;;;;;;;1.92;85.38;99543.02;100328;1297;98521;-60
2022/11/22 05:03:24;;;;;;;82.80;34.60;;;;;;;1.85;85.49;99547.99;100328;1293;95137;-58
2022/11/22 05:05:55;;;;;;;79.80;34.80;;;;;;;1.84;85.47;99546.19;100308;1300;80939;-58
2022/11/22 05:08:27;;;;;;;74.80;31.90;;;;;;;1.83;85.47;99548.08;100302;1294;88636;-60
2022/11/22 05:11:00;;;;;;;78.80;33.20;;;;;;;1.80;85.61;99555.38;100286;1292;80347;-60
2022/11/22 05:13:37;;;;;;;80.20;31.60;;;;;;;1.82;85.56;99558.95;100367;1299;98255;-53
2022/11/22 05:16:11;;;;;;;71.00;32.90;;;;;;;1.84;85.58;99558.40;100319;1293;93893;-55
2022/11/22 05:18:40;;;;;;;75.90;33.10;;;;;;;1.76;85.72;99561.44;100032;1294;81792;-58
2022/11/22 05:21:13;;;;;;;73.80;33.20;;;;;;;1.74;85.83;99564.02;100302;1293;89487;-58
2022/11/22 05:23:55;;;;;;;71.10;33.00;;;;;;;1.76;85.78;99566.99;100339;1291;78551;-60
2022/11/22 05:26:25;;;;;;;69.00;31.60;;;;;;;1.81;85.73;99567.17;100362;1294;99563;-61
2022/11/22 05:28:56;;;;;;;76.90;33.50;;;;;;;1.82;85.72;99571.55;100377;1300;95078;-59
2022/11/22 05:31:27;;;;;;;81.10;35.80;;;;;;;1.83;85.71;99572.34;100352;1294;82259;-57
2022/11/22 05:34:02;;;;;;;78.00;36.70;;;;;;;1.82;85.78;99573.23;100365;1293;88325;-56
2022/11/22 05:36:36;;;;;;;81.50;34.60;;;;;;;1.79;85.65;99574.80;100312;1293;81412;-60
2022/11/22 05:39:08;;;;;;;84.20;35.90;;;;;;;1.80;85.76;99580.08;100350;1278;98250;-60
2022/11/22 05:41:54;;;;;;;75.50;32.40;;;;;;;1.81;85.74;99588.17;100323;1294;93337;-61
2022/11/22 05:44:28;;;;;;;80.90;34.10;;;;;;;1.83;85.74;99589.77;100301;1297;82709;-61
2022/11/22 05:47:02;;;;;;;76.60;32.00;;;;;;;1.83;85.75;99591.68;100327;1290;88671;-62
2022/11/22 05:49:35;;;;;;;69.70;34.20;;;;;;;1.85;85.85;99593.83;100335;1292;77738;-62
2022/11/22 05:52:07;;;;;;;74.00;33.60;;;;;;;1.87;85.88;99598.06;100355;1289;99703;-61
2022/11/22 05:54:40;;;;;;;84.20;37.00;;;;;;;1.79;85.89;99606.59;100335;1297;94197;-62
2022/11/22 05:57:10;;;;;;;80.10;35.00;;;;;;;1.77;85.79;99611.80;100374;1293;82716;-61
2022/11/22 05:59:43;;;;;;;78.10;34.30;;;;;;;1.75;85.83;99612.54;100318;1300;87816;-60
2022/11/22 06:02:15;;;;;;;80.90;34.10;;;;;;;1.75;85.98;99609.52;100356;1295;81660;-57
2022/11/22 06:04:46;;;;;;;80.70;33.90;;;;;;;1.77;85.87;99614.23;100384;1294;99487;-60
2022/11/22 06:07:16;;;;;;;79.50;34.80;;;;;;;1.75;86.03;99620.14;100386;1292;95419;-57
2022/11/22 06:09:49;;;;;;;77.80;33.50;;;;;;;1.76;85.91;99622.48;100377;1278;83160;-61
2022/11/22 06:12:18;;;;;;;82.30;33.40;;;;;;;1.76;86.04;99623.64;100341;1294;88453;-57
2022/11/22 06:14:50;;;;;;;82.60;34.20;;;;;;;1.82;86.04;99624.15;100340;1297;80578;-59
2022/11/22 06:17:22;;;;;;;86.60;35.50;;;;;;;1.86;85.89;99619.32;100308;1294;97515;-57
2022/11/22 06:19:54;;;;;;;82.80;36.20;;;;;;;1.89;85.93;99623.55;100295;1297;95193;-59
2022/11/22 06:22:27;;;;;;;78.40;33.40;;;;;;;1.87;86.04;99625.73;100315;1292;83209;-53
2022/11/22 06:24:58;;;;;;;59.30;26.30;;;;;;;1.89;85.83;99625.02;100315;1294;87541;-59
2022/11/22 06:27:30;;;;;;;77.90;35.70;;;;;;;1.87;85.93;99626.95;100313;1293;79812;-59
2022/11/22 06:30:00;;;;;;;82.20;33.60;;;;;;;1.89;85.96;99631.42;100313;1300;99952;-59
2022/11/22 06:32:34;;;;;;;89.20;34.30;;;;;;;1.90;85.82;99629.32;100330;1291;96075;-59
2022/11/22 06:35:05;;;;;;;83.10;34.20;;;;;;;1.92;85.67;99630.61;100322;1300;82559;-61
2022/11/22 06:37:34;;;;;;;85.20;34.80;;;;;;;1.90;85.78;99631.50;100346;1285;87633;-62
2022/11/22 06:40:11;;;;;;;78.30;34.70;;;;;;;1.90;85.82;99629.91;100347;1292;81035;-58
2022/11/22 06:42:42;;;;;;;85.70;33.10;;;;;;;1.88;86.05;99627.95;100340;1299;99840;-60
2022/11/22 06:45:15;;;;;;;80.10;34.30;;;;;;;1.91;86.12;99624.45;100287;1298;94359;-62
2022/11/22 06:47:44;;;;;;;87.40;34.90;;;;;;;1.96;86.02;99626.94;100344;1286;83339;-63
2022/11/22 06:50:19;;;;;;;82.60;35.70;;;;;;;1.98;86.13;99630.46;100373;1293;88984;-58
2022/11/22 06:52:55;;;;;;;89.60;36.80;;;;;;;1.99;86.03;99629.83;100367;1294;78351;-62
2022/11/22 06:55:27;;;;;;;90.30;37.70;;;;;;;2.03;85.77;99634.77;100379;1292;97484;-62
2022/11/22 06:57:59;;;;;;;83.30;34.70;;;;;;;2.03;85.87;99637.40;100345;1294;94752;-62
2022/11/22 07:00:32;;;;;;;86.00;34.50;;;;;;;2.03;85.76;99637.09;100371;1284;80573;-59
2022/11/22 07:03:06;;;;;;;81.70;33.90;;;;;;;2.00;85.88;99636.47;100381;1298;87007;-60
2022/11/22 07:05:37;;;;;;;90.40;34.50;;;;;;;1.97;86.16;99636.04;100363;1292;80471;-53
2022/11/22 07:08:07;;;;;;;86.10;34.90;;;;;;;1.98;86.01;99644.84;100336;1292;97796;-60
2022/11/22 07:10:42;;;;;;;85.70;33.70;;;;;;;2.00;86.17;99648.56;100278;1294;94279;-57
2022/11/22 07:13:14;;;;;;;84.80;35.60;;;;;;;2.03;86.23;99656.61;100323;1292;82413;-58
2022/11/22 07:15:42;;;;;;;84.20;36.00;;;;;;;2.09;86.34;99661.52;100222;1301;91089;-58
2022/11/22 07:18:15;;;;;;;89.90;36.30;;;;;;;2.10;86.16;99655.39;100333;1293;80081;-61
2022/11/22 07:20:49;;;;;;;88.60;36.50;;;;;;;2.11;86.15;99655.44;100327;1293;98835;-60
2022/11/22 07:23:22;;;;;;;86.30;35.00;;;;;;;2.07;86.26;99648.50;100301;1297;95078;-61
2022/11/22 07:25:54;;;;;;;90.80;35.00;;;;;;;2.10;85.97;99648.21;100318;1294;82794;-61
2022/11/22 07:28:25;;;;;;;89.80;36.10;;;;;;;2.12;86.05;99651.95;100310;1294;89180;-58
2022/11/22 07:31:01;;;;;;;87.90;33.70;;;;;;;2.11;86.19;99649.41;100242;1301;80029;-57
2022/11/22 07:33:31;;;;;;;87.10;33.70;;;;;;;2.13;86.18;99650.04;100342;1297;99568;-61
2022/11/22 07:36:08;;;;;;;83.00;33.90;;;;;;;2.18;86.08;99646.67;100331;1294;94572;-62
2022/11/22 07:38:38;;;;;;;87.50;35.40;;;;;;;2.24;86.30;99649.31;100367;1294;81414;-58
2022/11/22 07:41:11;;;;;;;85.30;35.50;;;;;;;2.22;86.53;99653.09;100302;1293;87305;-57
2022/11/22 07:43:40;;;;;;;90.40;37.20;;;;;;;2.29;86.30;99650.22;100232;1295;77434;-55
2022/11/22 07:46:18;;;;;;;86.20;35.70;;;;;;;2.33;86.24;99645.13;100319;1294;100235;-55
2022/11/22 07:48:49;;;;;;;87.60;36.20;;;;;;;2.31;86.05;99645.88;100280;1300;94696;-60
2022/11/22 07:51:22;;;;;;;90.80;33.50;;;;;;;2.30;86.20;99653.43;100340;1294;83319;-60
2022/11/22 07:53:54;;;;;;;84.90;35.10;;;;;;;2.32;86.14;99654.21;100307;1294;87592;-60
2022/11/22 07:56:35;;;;;;;89.30;32.80;;;;;;;2.39;86.20;99663.39;100300;1292;80787;-57
2022/11/22 07:59:05;;;;;;;89.60;34.60;;;;;;;2.45;86.11;99659.21;100342;1294;97342;-58
2022/11/22 08:01:40;;;;;;;92.30;36.60;;;;;;;2.52;86.08;99663.15;100305;1294;95555;-58
2022/11/22 08:04:13;;;;;;;99.30;38.80;;;;;;;2.50;85.99;99662.14;100332;1298;81642;-59
2022/11/22 08:06:44;;;;;;;96.40;37.20;;;;;;;2.59;86.08;99673.23;100315;1284;88982;-58
2022/11/22 08:09:14;;;;;;;102.00;39.00;;;;;;;2.60;86.08;99678.86;100329;1298;77290;-62
2022/11/22 08:11:47;;;;;;;96.10;39.00;;;;;;;2.60;85.98;99677.77;100338;1293;99776;-61
2022/11/22 08:14:20;;;;;;;101.10;36.60;;;;;;;2.52;86.03;99677.38;100201;1287;95329;-61
2022/11/22 08:16:50;;;;;;;101.40;37.80;;;;;;;2.49;86.06;99676.77;100365;1294;82538;-62
2022/11/22 08:19:23;;;;;;;99.40;39.30;;;;;;;2.55;85.97;99680.83;100316;1292;89049;-58
2022/11/22 08:21:52;;;;;;;100.70;37.70;;;;;;;2.56;85.86;99680.11;100324;1294;81039;-56
2022/11/22 08:24:24;;;;;;;101.60;37.40;;;;;;;2.52;86.03;99683.02;100371;1294;99305;-59
2022/11/22 08:26:53;;;;;;;95.90;35.80;;;;;;;2.53;85.97;99682.09;100321;1284;94867;-60
2022/11/22 08:29:25;;;;;;;95.80;37.70;;;;;;;2.57;85.91;99677.34;100345;1301;83279;-61
2022/11/22 08:31:59;;;;;;;95.00;37.20;;;;;;;2.59;85.86;99677.56;100304;1294;89362;-61
2022/11/22 08:34:27;;;;;;;;;;;;;;;2.59;85.69;99673.42;100394;1285;78403;-62
2022/11/22 08:36:58;;;;;;;108.60;39.70;;;;;;;2.46;85.77;99674.93;100350;1293;99308;-60
2022/11/22 08:39:31;;;;;;;98.30;37.70;;;;;;;2.44;85.75;99680.85;100349;1294;94440;-63
2022/11/22 08:42:07;;;;;;;94.20;34.90;;;;;;;2.41;85.85;99681.92;100383;1294;83169;-62
2022/11/22 08:44:39;;;;;;;96.00;36.80;;;;;;;2.46;85.80;99683.14;100348;1294;88679;-64
2022/11/22 08:47:10;;;;;;;91.80;35.00;;;;;;;2.53;85.79;99683.69;100368;1299;80130;-62
2022/11/22 08:49:45;;;;;;;93.70;37.10;;;;;;;2.60;85.75;99680.07;100362;1294;97904;-60
2022/11/22 08:52:14;;;;;;;98.90;36.00;;;;;;;2.62;85.69;99677.89;100301;1293;93664;-59
2022/11/22 08:54:45;;;;;;;96.30;38.40;;;;;;;2.66;85.79;99684.48;100339;1294;82836;-59
2022/11/22 08:57:17;;;;;;;98.10;39.30;;;;;;;2.72;85.70;99686.14;100340;1291;87721;-59
2022/11/22 08:59:46;;;;;;;98.00;38.00;;;;;;;2.78;85.73;99683.52;100344;1294;78536;-61
2022/11/22 09:02:18;;;;;;;97.70;39.10;;;;;;;2.79;85.80;99679.29;100335;1297;97302;-63
2022/11/22 09:04:55;;;;;;;103.70;38.40;;;;;;;2.84;85.62;99684.66;100296;1294;95693;-61
2022/11/22 09:07:24;;;;;;;99.10;38.30;;;;;;;2.82;85.50;99686.25;100328;1294;82379;-62
2022/11/22 09:09:54;;;;;;;99.70;39.60;;;;;;;2.83;85.49;99685.52;100282;1297;88923;-60
2022/11/22 09:12:24;;;;;;;96.90;37.30;;;;;;;2.78;85.40;99689.36;100306;1300;81010;-59
2022/11/22 09:15:03;;;;;;;99.40;37.50;;;;;;;2.76;85.49;99689.84;100375;1294;99353;-62
2022/11/22 09:17:33;;;;;;;96.00;35.50;;;;;;;2.77;85.40;99693.77;100349;1292;93368;-59
2022/11/22 09:20:04;;;;;;;94.30;35.80;;;;;;;2.82;85.51;99692.91;100333;1294;81080;-57
2022/11/22 09:22:32;;;;;;;97.60;38.50;;;;;;;2.82;85.44;99691.31;100330;1294;87239;-52
2022/11/22 09:25:01;;;;;;;88.80;36.80;;;;;;;2.89;85.49;99692.85;100336;1298;79593;-57
2022/11/22 09:27:34;;;;;;;100.60;40.60;;;;;;;2.92;85.44;99697.20;100356;1294;99128;-60
2022/11/22 09:30:04;;;;;;;103.00;40.50;;;;;;;2.94;85.60;99700.73;100297;1291;94017;-59
2022/11/22 09:32:34;;;;;;;113.00;44.40;;;;;;;2.90;85.47;99701.63;100352;1294;81354;-59
2022/11/22 09:35:04;;;;;;;121.30;47.20;;;;;;;2.95;85.47;99699.70;100322;1292;89081;-62
2022/11/22 09:37:33;;;;;;;113.10;41.30;;;;;;;2.89;85.44;99695.23;100303;1294;80540;-53
2022/11/22 09:40:02;;;;;;;111.20;42.50;;;;;;;2.89;85.37;99691.83;100367;1297;97582;-61
2022/11/22 09:43:07;;;;;;;113.50;41.10;;;;;;;2.94;85.45;99689.29;100308;1293;94960;-58
2022/11/22 09:46:18;;;;;;;111.10;40.60;;;;;;;2.92;85.59;99689.50;100279;1294;81967;-58
2022/11/22 09:49:10;;;;;;;108.40;38.30;;;;;;;2.97;85.67;99693.64;100324;1297;88660;-59
2022/11/22 09:51:54;;;;;;;121.40;45.40;;;;;;;3.05;85.59;99686.95;100349;1294;79596;-54
2022/11/22 09:54:31;;;;;;;106.70;42.20;;;;;;;3.09;85.64;99690.27;100347;1294;99929;-61
2022/11/22 09:57:09;;;;;;;126.90;48.30;;;;;;;3.11;85.51;99685.13;100355;1286;93114;-60
2022/11/22 09:59:44;;;;;;;109.50;40.90;;;;;;;3.13;85.35;99673.86;100323;1298;82658;-58
2022/11/22 10:02:21;;;;;;;115.00;44.80;;;;;;;3.13;85.45;99677.44;100331;1286;86282;-58
2022/11/22 10:04:55;;;;;;;109.70;42.40;;;;;;;3.17;85.05;99680.06;100328;1294;81199;-57
2022/11/22 10:07:31;;;;;;;102.30;37.30;;;;;;;3.22;85.13;99688.59;100335;1292;100111;-59
2022/11/22 10:10:10;;;;;;;96.10;36.80;;;;;;;3.20;84.90;99689.48;100218;1295;96662;-57
2022/11/22 10:12:51;;;;;;;94.30;36.40;;;;;;;3.23;85.07;99683.96;100203;1294;82534;-59
2022/11/22 10:15:33;;;;;;;92.80;36.90;;;;;;;3.32;85.04;99680.70;100315;1292;88616;-58
2022/11/22 10:18:18;;;;;;;88.50;36.00;;;;;;;3.37;84.99;99684.85;100311;1294;79256;-59
2022/11/22 10:20:48;;;;;;;97.40;38.80;;;;;;;3.45;84.95;99685.73;100322;1297;96925;-56
2022/11/22 10:23:22;;;;;;;99.70;40.70;;;;;;;3.57;84.82;99688.13;100351;1294;93930;-59
2022/11/22 10:26:00;;;;;;;99.80;41.90;;;;;;;3.66;84.64;99685.99;100379;1298;81962;-60
2022/11/22 10:28:36;;;;;;;95.30;39.50;;;;;;;3.64;84.45;99681.41;100386;1297;89114;-58
2022/11/22 10:31:19;;;;;;;95.60;38.40;;;;;;;3.56;84.40;99673.31;100342;1294;78826;-60
2022/11/22 10:34:04;;;;;;;100.10;36.70;;;;;;;3.55;84.13;99672.34;100363;1298;99901;-60
2022/11/22 10:36:44;;;;;;;93.60;36.40;;;;;;;3.50;84.23;99677.92;100281;1297;94290;-61
2022/11/22 10:39:45;;;;;;;103.40;41.10;;;;;;;3.50;84.15;99685.70;100323;1297;81299;-61
2022/11/22 10:42:37;;;;;;;79.50;32.70;;;;;;;3.49;84.25;99691.48;100303;1298;88718;-60
2022/11/22 10:45:17;;;;;;;77.70;33.40;;;;;;;3.53;84.24;99695.06;100342;1284;81328;-60
2022/11/22 10:48:02;;;;;;;81.10;35.30;;;;;;;3.43;84.31;99699.12;100317;1294;100091;-60
2022/11/22 10:50:50;;;;;;;86.50;35.30;;;;;;;3.43;84.35;99708.71;100312;1292;95484;-57
2022/11/22 10:53:28;;;;;;;86.40;34.40;;;;;;;3.42;84.28;99712.04;100346;1296;81923;-61
2022/11/22 10:56:10;;;;;;;84.80;35.70;;;;;;;3.40;84.18;99719.98;100306;1297;88678;-62
2022/11/22 10:58:58;;;;;;;84.70;34.50;;;;;;;3.49;84.05;99724.27;100366;1297;79839;-59
2022/11/22 11:01:38;;;;;;;76.40;32.20;;;;;;;3.52;83.80;99723.02;100385;1297;99853;-60
2022/11/22 11:04:12;;;;;;;74.10;31.30;;;;;;;3.57;83.59;99722.69;100347;1292;94574;-62
2022/11/22 11:06:45;;;;;;;69.70;29.40;;;;;;;3.55;83.53;99718.27;100341;1294;80521;-62
2022/11/22 11:09:23;;;;;;;71.30;32.00;;;;;;;3.57;83.65;99708.86;100336;1294;87529;-58
2022/11/22 11:11:54;;;;;;;68.80;30.80;;;;;;;3.66;83.66;99703.42;100370;1300;81281;-59
2022/11/22 11:14:34;;;;;;;78.50;37.80;;;;;;;3.72;83.44;99696.79;100410;1300;98671;-62
2022/11/22 11:17:05;;;;;;;69.50;31.80;;;;;;;3.85;83.41;99693.75;100332;1297;94707;-62
2022/11/22 11:19:42;;;;;;;75.70;34.30;;;;;;;3.85;83.37;99689.31;100349;1292;81241;-58
2022/11/22 11:22:22;;;;;;;67.80;29.20;;;;;;;3.96;83.08;99698.39;100224;1294;89245;-58
2022/11/22 11:24:55;;;;;;;54.30;26.30;;;;;;;3.99;82.92;99705.55;100231;1301;81416;-56
2022/11/22 11:27:33;;;;;;;55.70;25.30;;;;;;;3.93;82.66;99700.85;100317;1294;98984;-59
2022/11/22 11:30:04;;;;;;;45.90;23.60;;;;;;;3.92;82.31;99692.29;100320;1294;95542;-57
2022/11/22 11:32:52;;;;;;;43.80;21.50;;;;;;;3.87;81.99;99687.48;100365;1294;82921;-59
2022/11/22 11:35:25;;;;;;;49.10;23.80;;;;;;;3.85;81.99;99693.52;100318;1290;87354;-61
2022/11/22 11:37:56;;;;;;;55.20;25.60;;;;;;;3.80;81.90;99691.02;100327;1298;79097;-58
2022/11/22 11:40:34;;;;;;;48.40;22.80;;;;;;;3.75;81.69;99690.92;100313;1292;99124;-63
2022/11/22 11:43:22;;;;;;;49.60;23.20;;;;;;;3.77;81.76;99690.46;100225;1294;94034;-63
2022/11/22 11:45:51;;;;;;;41.70;18.20;;;;;;;3.74;81.37;99688.15;100356;1293;83068;-61
2022/11/22 11:48:39;;;;;;;41.10;19.80;;;;;;;3.73;81.14;99686.71;100346;1293;87459;-58
2022/11/22 11:51:35;;;;;;;39.80;19.90;;;;;;;3.75;81.18;99682.15;100367;1292;80048;-62
2022/11/22 11:54:16;;;;;;;42.70;22.00;;;;;;;3.80;81.13;99672.66;100375;1294;98597;-60
2022/11/22 11:56:55;;;;;;;51.10;24.10;;;;;;;3.83;81.00;99667.23;100327;1299;93067;-53
2022/11/22 11:59:42;;;;;;;53.50;26.20;;;;;;;3.86;81.07;99670.27;100326;1298;80644;-63